Time;durP1;ratioP1;P1;durP2;ratioP2;P2;SDS_P1;SDS_P2;PMS_P1;PMS_P2;Temp;Humidity;BMP_temperature;BMP_pressure;BME280_temperature;BME280_humidity;BME280_pressure;Samples;Min_cycle;Max_cycle;Signal;HPM_P1;HPM_P2
2021/08/29 00:00:11;;;;;;;5.63;5.10;;;;;;;13.55;72.31;100629.09;4891223;28;98381;-65
2021/08/29 00:02:37;;;;;;;5.90;5.40;;;;;;;13.53;72.55;100634.00;4904079;28;97740;-62
2021/08/29 00:05:05;;;;;;;6.18;5.57;;;;;;;13.50;72.06;100627.25;4903914;28;98526;-62
2021/08/29 00:07:31;;;;;;;7.78;5.88;;;;;;;13.49;72.16;100627.53;4900755;28;98861;-66
2021/08/29 00:09:58;;;;;;;8.25;7.43;;;;;;;13.45;72.09;100627.31;4884871;28;97772;-66
2021/08/29 00:12:25;;;;;;;8.25;6.72;;;;;;;13.41;72.04;100626.25;4892224;28;105240;-65
2021/08/29 00:14:51;;;;;;;8.05;6.50;;;;;;;13.39;72.68;100625.69;4902032;28;98428;-65
2021/08/29 00:17:17;;;;;;;6.53;4.53;;;;;;;13.35;72.41;100621.94;4903135;28;126885;-62
2021/08/29 00:19:43;;;;;;;6.88;4.40;;;;;;;13.33;71.83;100624.16;4903700;28;98574;-65
2021/08/29 00:22:09;;;;;;;5.72;4.05;;;;;;;13.29;72.34;100631.22;4903860;28;97876;-62
2021/08/29 00:24:35;;;;;;;4.95;3.80;;;;;;;13.27;72.60;100630.66;4903808;28;126664;-65
2021/08/29 00:27:01;;;;;;;6.32;4.30;;;;;;;13.26;72.10;100626.34;4902115;28;126621;-66
2021/08/29 00:29:27;;;;;;;5.80;4.13;;;;;;;13.24;72.48;100629.34;4903003;28;126302;-66
2021/08/29 00:31:53;;;;;;;4.32;3.58;;;;;;;13.22;72.46;100623.38;4903231;28;97890;-66
2021/08/29 00:34:19;;;;;;;4.90;4.28;;;;;;;13.20;72.25;100624.72;4884184;28;126714;-62
2021/08/29 00:36:45;;;;;;;5.65;3.92;;;;;;;13.18;72.72;100624.22;4883303;28;111765;-61
2021/08/29 00:39:12;;;;;;;6.07;3.63;;;;;;;13.17;72.61;100619.91;4883800;28;124572;-65
2021/08/29 00:41:43;;;;;;;6.07;3.92;;;;;;;13.14;72.31;100621.25;4898836;28;98072;-62
2021/08/29 00:44:11;;;;;;;5.18;4.68;;;;;;;13.09;72.33;100613.19;4902916;28;111939;-65
2021/08/29 00:46:38;;;;;;;4.78;4.03;;;;;;;13.06;72.67;100624.56;4903648;28;98200;-61
2021/08/29 00:49:04;;;;;;;5.05;4.55;;;;;;;13.05;72.60;100616.69;4901400;28;97873;-62
2021/08/29 00:51:33;;;;;;;5.30;4.80;;;;;;;13.03;72.67;100620.50;4917104;28;97992;-62
2021/08/29 00:54:00;;;;;;;4.90;4.38;;;;;;;13.01;72.18;100625.41;4916437;28;129035;-62
2021/08/29 00:56:27;;;;;;;5.18;4.50;;;;;;;12.98;72.27;100617.84;4901345;28;128650;-62
2021/08/29 00:58:55;;;;;;;7.28;5.20;;;;;;;12.95;72.58;100620.28;4903534;28;97918;-61
2021/08/29 01:01:27;;;;;;;7.40;5.63;;;;;;;12.92;72.39;100626.25;4885732;28;98027;-61
2021/08/29 01:03:55;;;;;;;6.40;4.90;;;;;;;12.91;72.49;100624.63;4865982;28;106327;-66
2021/08/29 01:06:29;;;;;;;6.07;4.82;;;;;;;12.84;72.23;100621.41;4868571;28;100484;-62
2021/08/29 01:09:02;;;;;;;5.40;4.68;;;;;;;12.83;72.26;100623.31;4885254;28;98437;-61
2021/08/29 01:11:28;;;;;;;4.65;4.10;;;;;;;12.82;72.57;100623.59;4885320;28;105780;-61
2021/08/29 01:14:24;;;;;;;5.43;3.70;;;;;;;12.75;72.15;100622.00;4891776;28;98863;-61
2021/08/29 01:16:55;;;;;;;5.53;3.97;;;;;;;12.73;72.42;100616.06;4883562;28;97870;-62
2021/08/29 01:19:33;;;;;;;5.05;4.05;;;;;;;12.71;72.59;100617.44;4882952;28;98918;-65
2021/08/29 01:22:00;;;;;;;4.90;4.10;;;;;;;12.70;72.33;100621.22;4866209;28;98476;-66
2021/08/29 01:24:26;;;;;;;6.20;4.47;;;;;;;12.65;72.14;100613.94;4881834;28;115127;-61
2021/08/29 01:27:15;;;;;;;5.75;3.83;;;;;;;12.62;72.23;100614.50;4898940;28;99124;-66
2021/08/29 01:29:41;;;;;;;5.63;4.20;;;;;;;12.60;72.34;100605.84;4914865;28;98030;-61
2021/08/29 01:32:07;;;;;;;4.65;4.22;;;;;;;12.60;72.43;100615.84;4899534;28;117029;-61
2021/08/29 01:34:34;;;;;;;5.75;4.40;;;;;;;12.59;72.57;100612.34;4885268;28;100259;-62
2021/08/29 01:37:00;;;;;;;4.78;3.92;;;;;;;12.59;72.93;100615.06;4868088;28;107691;-61
2021/08/29 01:39:26;;;;;;;5.80;4.28;;;;;;;12.57;72.37;100617.22;4868031;28;128250;-62
2021/08/29 01:41:52;;;;;;;6.72;4.45;;;;;;;12.55;72.15;100613.19;4898322;28;117791;-66
2021/08/29 01:44:19;;;;;;;6.72;5.50;;;;;;;12.51;72.12;100615.63;4891303;28;98885;-61
2021/08/29 01:46:45;;;;;;;5.78;4.40;;;;;;;12.47;72.45;100611.84;4877601;28;98862;-61
2021/08/29 01:49:11;;;;;;;5.70;3.95;;;;;;;12.43;72.49;100617.00;4916114;28;125637;-66
2021/08/29 01:51:38;;;;;;;5.70;3.85;;;;;;;12.41;72.25;100618.34;4915560;28;97930;-61
2021/08/29 01:54:04;;;;;;;4.10;3.65;;;;;;;12.41;72.29;100618.34;4900100;28;98207;-66
2021/08/29 01:56:30;;;;;;;5.43;3.85;;;;;;;12.40;72.45;100617.53;4883390;28;122281;-61
2021/08/29 01:58:56;;;;;;;4.70;3.83;;;;;;;12.38;72.32;100622.44;4915650;28;125829;-61
2021/08/29 02:01:22;;;;;;;4.10;3.55;;;;;;;12.38;72.44;100622.44;4886847;28;98016;-61
2021/08/29 02:03:50;;;;;;;3.67;3.15;;;;;;;12.36;72.18;100623.78;4881808;28;127997;-66
2021/08/29 02:06:34;;;;;;;5.43;3.70;;;;;;;12.32;72.11;100617.31;4894416;28;98367;-65
2021/08/29 02:09:05;;;;;;;3.72;3.33;;;;;;;12.30;72.16;100612.19;4900216;28;111325;-61
2021/08/29 02:11:36;;;;;;;3.75;3.35;;;;;;;12.25;72.09;100620.28;4881988;28;98054;-62
2021/08/29 02:14:04;;;;;;;4.20;3.50;;;;;;;12.23;71.95;100611.66;4880490;28;111106;-66
2021/08/29 02:16:34;;;;;;;4.00;3.00;;;;;;;12.20;72.17;100615.72;4882854;28;98635;-62
2021/08/29 02:19:00;;;;;;;5.20;3.05;;;;;;;12.19;72.29;100611.41;4881221;28;111834;-66
2021/08/29 02:21:27;;;;;;;4.50;3.35;;;;;;;12.20;72.29;100609.50;4880451;28;117444;-65
2021/08/29 02:23:53;;;;;;;3.83;3.30;;;;;;;12.20;71.93;100606.81;4898675;28;128755;-65
2021/08/29 02:26:21;;;;;;;4.57;3.22;;;;;;;12.20;72.20;100601.41;4898997;28;127920;-62
2021/08/29 02:28:47;;;;;;;6.88;3.28;;;;;;;12.20;72.24;100609.50;4915585;28;120006;-66
2021/08/29 02:31:13;;;;;;;4.28;3.42;;;;;;;12.20;72.03;100613.00;4916091;28;117700;-62
2021/08/29 02:33:39;;;;;;;4.72;3.20;;;;;;;12.18;71.99;100608.97;4882722;28;128797;-65
2021/08/29 02:36:06;;;;;;;4.25;3.70;;;;;;;12.16;71.94;100608.44;4900306;28;112131;-66
2021/08/29 02:38:32;;;;;;;3.80;3.33;;;;;;;12.11;72.21;100603.84;4899386;28;98351;-66
2021/08/29 02:40:58;;;;;;;5.18;3.20;;;;;;;12.08;71.87;100598.19;4915785;28;105745;-61
2021/08/29 02:43:24;;;;;;;3.90;3.50;;;;;;;12.04;72.19;100612.25;4899745;28;111332;-66
2021/08/29 02:45:50;;;;;;;4.15;3.53;;;;;;;12.03;72.12;100599.81;4899536;28;98518;-66
2021/08/29 02:48:16;;;;;;;4.90;3.58;;;;;;;12.02;72.26;100602.78;4914095;28;98099;-61
2021/08/29 02:50:44;;;;;;;4.45;3.50;;;;;;;12.01;72.28;100601.97;4898757;28;119535;-65
2021/08/29 02:53:10;;;;;;;4.53;3.25;;;;;;;12.02;72.26;100597.38;4899501;28;104064;-61
2021/08/29 02:55:38;;;;;;;5.32;3.58;;;;;;;11.99;71.81;100603.34;4899165;28;98185;-66
2021/08/29 02:58:06;;;;;;;4.90;3.60;;;;;;;11.96;71.95;100604.69;4898247;28;125443;-65
2021/08/29 03:00:32;;;;;;;3.53;3.15;;;;;;;11.92;72.00;100611.72;4900404;28;109838;-65
2021/08/29 03:02:59;;;;;;;4.32;3.17;;;;;;;11.90;72.04;100613.06;4888241;28;109401;-61
2021/08/29 03:05:25;;;;;;;3.97;2.95;;;;;;;11.87;72.12;100606.34;4881856;28;116325;-62
2021/08/29 03:07:52;;;;;;;4.78;3.30;;;;;;;11.89;72.50;100612.25;4881524;28;107610;-66
2021/08/29 03:10:18;;;;;;;4.45;3.50;;;;;;;11.89;72.17;100609.56;4878465;28;107412;-66
2021/08/29 03:12:44;;;;;;;3.45;3.15;;;;;;;11.91;72.06;100610.13;4864029;28;100797;-65
2021/08/29 03:15:12;;;;;;;4.35;3.92;;;;;;;11.88;71.76;100607.16;4896178;28;119336;-66
2021/08/29 03:17:39;;;;;;;4.68;4.03;;;;;;;11.88;71.80;100605.25;4880174;28;98211;-65
2021/08/29 03:20:08;;;;;;;6.22;4.32;;;;;;;11.87;71.81;100602.81;4881654;28;101937;-63
2021/08/29 03:22:36;;;;;;;6.10;4.63;;;;;;;11.86;72.21;100603.88;4880445;28;98738;-66
2021/08/29 03:25:03;;;;;;;5.63;4.43;;;;;;;11.85;72.32;100603.09;4882104;28;98475;-66
2021/08/29 03:27:30;;;;;;;6.63;5.10;;;;;;;11.85;72.57;100603.09;4884365;28;117294;-65
2021/08/29 03:29:56;;;;;;;6.00;4.90;;;;;;;11.88;72.35;100601.75;4885248;28;109383;-62
2021/08/29 03:32:23;;;;;;;6.28;4.82;;;;;;;11.91;72.84;100606.59;4903904;28;128214;-66
2021/08/29 03:34:50;;;;;;;4.70;3.97;;;;;;;11.91;72.90;100604.72;4902744;28;116316;-66
2021/08/29 03:37:16;;;;;;;4.82;3.95;;;;;;;11.96;72.95;100609.28;4902527;28;115446;-66
2021/08/29 03:39:42;;;;;;;5.13;4.40;;;;;;;11.96;73.14;100610.09;4886314;28;103690;-65
2021/08/29 03:42:08;;;;;;;5.85;4.68;;;;;;;11.96;73.32;100604.69;4901650;28;121244;-66
2021/08/29 03:44:35;;;;;;;5.63;4.75;;;;;;;11.97;73.21;100603.59;4902600;28;110097;-66
2021/08/29 03:47:01;;;;;;;7.68;5.53;;;;;;;11.98;73.42;100599.00;4902471;28;98054;-66
2021/08/29 03:49:27;;;;;;;6.57;5.32;;;;;;;12.00;73.52;100602.25;4889711;28;99727;-62
2021/08/29 03:51:55;;;;;;;6.05;5.10;;;;;;;12.03;73.38;100599.03;4884816;28;99331;-65
2021/08/29 03:54:21;;;;;;;7.40;5.47;;;;;;;12.08;73.64;100606.28;4899956;28;98937;-65
2021/08/29 03:56:47;;;;;;;7.20;6.32;;;;;;;12.09;73.34;100600.59;4885284;28;105869;-66
2021/08/29 03:59:13;;;;;;;6.05;5.45;;;;;;;12.17;73.96;100607.34;4892823;28;112361;-66
2021/08/29 04:01:40;;;;;;;8.32;5.70;;;;;;;12.27;73.82;100610.84;4901636;28;126876;-62
2021/08/29 04:04:06;;;;;;;6.50;5.90;;;;;;;12.37;73.69;100614.59;4903496;28;97965;-65
2021/08/29 04:06:33;;;;;;;9.30;6.47;;;;;;;12.44;73.62;100609.69;4903118;28;113306;-61
2021/08/29 04:09:04;;;;;;;8.38;6.28;;;;;;;12.49;73.51;100612.38;4919129;28;98085;-65
2021/08/29 04:11:30;;;;;;;8.50;5.97;;;;;;;12.57;73.39;100611.78;4916651;28;122202;-65
2021/08/29 04:13:57;;;;;;;6.95;6.10;;;;;;;12.63;73.43;100612.59;4903551;28;98416;-65
2021/08/29 04:16:24;;;;;;;6.68;5.82;;;;;;;12.68;73.69;100609.88;4904643;28;98236;-61
2021/08/29 04:18:50;;;;;;;6.80;5.88;;;;;;;12.74;73.28;100612.28;4918460;28;97921;-65
2021/08/29 04:21:20;;;;;;;7.82;6.35;;;;;;;12.80;73.39;100606.84;4904143;28;98944;-65
2021/08/29 04:23:46;;;;;;;7.85;6.32;;;;;;;12.85;73.16;100612.22;4904084;28;99176;-65
2021/08/29 04:26:13;;;;;;;7.85;6.57;;;;;;;12.90;73.22;100606.78;4900663;28;120439;-61
2021/08/29 04:28:39;;;;;;;7.57;6.55;;;;;;;12.95;73.13;100607.56;4901111;28;98188;-61
2021/08/29 04:31:13;;;;;;;8.30;6.65;;;;;;;12.98;73.07;100609.72;4883643;28;98843;-65
2021/08/29 04:33:39;;;;;;;10.18;6.20;;;;;;;13.03;72.94;100601.56;4885158;28;98411;-65
2021/08/29 04:36:09;;;;;;;7.53;6.80;;;;;;;13.07;72.86;100606.41;4882373;28;99437;-61
2021/08/29 04:38:36;;;;;;;9.27;7.32;;;;;;;13.10;72.96;100600.44;4899334;28;98243;-66
2021/08/29 04:41:02;;;;;;;8.27;7.28;;;;;;;13.11;72.89;100599.34;4895789;28;98248;-62
2021/08/29 04:43:28;;;;;;;9.13;7.63;;;;;;;13.13;73.22;100602.59;4903751;28;98470;-62
2021/08/29 04:45:54;;;;;;;9.55;8.52;;;;;;;13.16;72.80;100602.00;4902566;28;126353;-62
2021/08/29 04:48:21;;;;;;;12.40;8.98;;;;;;;13.18;73.39;100602.56;4897024;28;115553;-62
2021/08/29 04:50:47;;;;;;;9.93;8.93;;;;;;;13.20;73.01;100600.38;4900330;28;127305;-61
2021/08/29 04:53:13;;;;;;;9.57;8.57;;;;;;;13.21;72.92;100605.50;4903382;28;105422;-66
2021/08/29 04:55:39;;;;;;;13.20;9.20;;;;;;;13.22;73.34;100609.84;4886768;28;98370;-66
2021/08/29 04:58:05;;;;;;;14.20;10.38;;;;;;;13.24;73.10;100612.28;4883096;28;117274;-62
2021/08/29 05:00:31;;;;;;;14.20;10.63;;;;;;;13.22;73.33;100601.72;4888369;28;126906;-65
2021/08/29 05:02:57;;;;;;;19.30;12.15;;;;;;;13.26;73.58;100608.22;4902252;28;127905;-62
2021/08/29 05:05:23;;;;;;;18.55;11.85;;;;;;;13.27;73.63;100606.31;4902194;28;127635;-61
2021/08/29 05:07:49;;;;;;;16.10;11.85;;;;;;;13.30;73.54;100604.94;4902932;28;117729;-65
2021/08/29 05:10:15;;;;;;;20.88;12.45;;;;;;;13.33;74.04;100601.69;4900600;28;128034;-66
2021/08/29 05:12:41;;;;;;;21.23;12.60;;;;;;;13.36;73.66;100614.63;4902158;28;128853;-65
2021/08/29 05:15:08;;;;;;;23.52;14.85;;;;;;;13.36;73.43;100610.03;4900349;28;127546;-61
2021/08/29 05:17:34;;;;;;;24.25;14.75;;;;;;;13.39;73.17;100614.06;4903163;28;97726;-65
2021/08/29 05:20:00;;;;;;;26.95;15.40;;;;;;;13.40;73.95;100619.22;4901954;28;107315;-66
2021/08/29 05:22:26;;;;;;;24.33;15.57;;;;;;;13.39;73.90;100614.88;4901712;28;129148;-65
2021/08/29 05:24:52;;;;;;;26.27;15.98;;;;;;;13.41;73.95;100614.63;4901590;28;126498;-65
2021/08/29 05:27:18;;;;;;;26.90;15.77;;;;;;;13.44;74.09;100620.28;4900548;28;107180;-65
2021/08/29 05:29:44;;;;;;;33.03;17.45;;;;;;;13.46;74.21;100615.38;4899531;28;127516;-65
2021/08/29 05:32:10;;;;;;;31.65;17.65;;;;;;;13.48;74.19;100617.81;4915484;28;128026;-66
2021/08/29 05:34:36;;;;;;;31.00;16.90;;;;;;;13.48;74.27;100613.19;4900132;28;127434;-65
2021/08/29 05:37:03;;;;;;;33.83;17.52;;;;;;;13.49;74.46;100609.41;4901871;28;117785;-61
2021/08/29 05:39:29;;;;;;;35.58;18.35;;;;;;;13.53;74.80;100608.84;4900463;28;99039;-61
2021/08/29 05:41:55;;;;;;;29.02;18.17;;;;;;;13.54;74.27;100619.38;4901282;28;111357;-66
2021/08/29 05:44:21;;;;;;;34.13;18.70;;;;;;;13.58;74.70;100614.19;4888065;28;126880;-65
2021/08/29 05:46:47;;;;;;;36.40;19.40;;;;;;;13.60;74.52;100620.97;4894046;28;112295;-65
2021/08/29 05:49:13;;;;;;;27.40;18.35;;;;;;;13.61;74.66;100613.63;4900107;28;98114;-61
2021/08/29 05:51:39;;;;;;;43.72;20.92;;;;;;;13.64;74.73;100613.09;4900180;28;127985;-62
2021/08/29 05:54:05;;;;;;;29.20;17.80;;;;;;;13.69;75.24;100615.72;4900475;28;127588;-65
2021/08/29 05:56:31;;;;;;;37.10;20.55;;;;;;;13.73;74.93;100612.16;4901271;28;117768;-65
2021/08/29 05:58:57;;;;;;;47.13;21.75;;;;;;;13.78;74.64;100607.78;4898577;28;128091;-65
2021/08/29 06:01:23;;;;;;;34.00;20.10;;;;;;;13.81;74.45;100612.66;4880668;28;128038;-62
2021/08/29 06:03:49;;;;;;;29.00;18.80;;;;;;;13.83;74.75;100605.84;4889720;28;128124;-66
2021/08/29 06:06:15;;;;;;;45.67;22.08;;;;;;;13.88;75.05;100610.41;4885823;28;118768;-65
2021/08/29 06:08:41;;;;;;;38.08;20.30;;;;;;;13.91;74.86;100610.66;4881751;28;129766;-62
2021/08/29 06:11:08;;;;;;;30.80;19.00;;;;;;;13.93;74.42;100610.38;4881831;28;128415;-65
2021/08/29 06:13:35;;;;;;;36.17;20.13;;;;;;;13.98;74.80;100610.31;4900037;28;98751;-61
2021/08/29 06:16:02;;;;;;;31.60;18.38;;;;;;;14.04;74.84;100611.06;4895512;28;116993;-61
2021/08/29 06:18:28;;;;;;;27.70;19.42;;;;;;;14.09;74.97;100608.31;4880879;28;98493;-65
2021/08/29 06:20:54;;;;;;;26.52;18.98;;;;;;;14.16;74.56;100611.50;4879133;28;125849;-65
2021/08/29 06:23:20;;;;;;;61.53;22.77;;;;;;;14.21;74.90;100606.00;4878177;28;127376;-62
2021/08/29 06:25:46;;;;;;;29.88;19.02;;;;;;;14.26;74.69;100605.94;4891135;28;113368;-61
2021/08/29 06:28:12;;;;;;;39.03;19.35;;;;;;;14.28;74.66;100603.75;4879391;28;116695;-62
2021/08/29 06:30:38;;;;;;;30.17;19.67;;;;;;;14.33;75.04;100608.31;4885332;28;126345;-65
2021/08/29 06:33:04;;;;;;;26.67;19.52;;;;;;;14.36;74.85;100607.75;4892654;28;126497;-65
2021/08/29 06:35:30;;;;;;;29.48;19.38;;;;;;;14.39;75.25;100607.97;4879724;28;97872;-61
2021/08/29 06:37:56;;;;;;;37.42;21.30;;;;;;;14.43;75.16;100608.22;4878738;28;127296;-65
2021/08/29 06:40:22;;;;;;;55.85;22.92;;;;;;;14.48;75.08;100614.38;4879140;28;127490;-62
2021/08/29 06:42:48;;;;;;;34.55;20.40;;;;;;;14.54;75.02;100611.63;4879218;28;98382;-62
2021/08/29 06:45:14;;;;;;;33.15;20.70;;;;;;;14.58;74.80;100616.19;4878927;28;118624;-62
2021/08/29 06:47:40;;;;;;;31.08;19.95;;;;;;;14.64;74.89;100614.22;4873235;28;115785;-65
2021/08/29 06:50:07;;;;;;;34.95;21.45;;;;;;;14.68;74.92;100612.53;4879330;28;126451;-61
2021/08/29 06:52:33;;;;;;;43.88;22.23;;;;;;;14.68;74.91;100615.25;4877959;28;98080;-61
2021/08/29 06:54:59;;;;;;;45.40;21.00;;;;;;;14.70;75.13;100615.78;4879621;28;117797;-61
2021/08/29 06:57:27;;;;;;;42.67;22.15;;;;;;;14.72;74.88;100621.69;4890477;28;100628;-62
2021/08/29 06:59:53;;;;;;;32.92;20.52;;;;;;;14.73;74.96;100618.69;4879798;28;99044;-65
2021/08/29 07:02:21;;;;;;;40.92;22.00;;;;;;;14.75;75.15;100620.31;4880420;28;112627;-65
2021/08/29 07:04:48;;;;;;;32.83;20.77;;;;;;;14.76;74.89;100617.31;4883027;28;97993;-62
2021/08/29 07:07:14;;;;;;;40.47;22.00;;;;;;;14.79;75.39;100616.72;4882779;28;98071;-62
2021/08/29 07:09:40;;;;;;;37.17;21.95;;;;;;;14.80;74.89;100620.25;4882417;28;97698;-62
2021/08/29 07:12:08;;;;;;;36.58;21.75;;;;;;;14.80;75.07;100614.81;4880511;28;119497;-65
2021/08/29 07:14:34;;;;;;;50.67;24.13;;;;;;;14.80;75.27;100614.81;4882331;28;104266;-65
2021/08/29 07:17:00;;;;;;;68.93;25.25;;;;;;;14.79;75.16;100622.16;4881439;28;98335;-61
2021/08/29 07:19:26;;;;;;;39.95;22.48;;;;;;;14.78;74.84;100620.56;4893830;28;128644;-66
2021/08/29 07:21:52;;;;;;;33.45;20.95;;;;;;;14.81;75.41;100625.38;4880951;28;121058;-65
2021/08/29 07:24:18;;;;;;;34.25;20.83;;;;;;;14.82;75.84;100618.88;4884395;28;118366;-62
2021/08/29 07:26:44;;;;;;;39.33;20.52;;;;;;;14.84;75.40;100624.00;4880696;28;127812;-65
2021/08/29 07:29:10;;;;;;;48.63;22.80;;;;;;;14.84;75.35;100618.56;4881084;28;124805;-65
2021/08/29 07:31:36;;;;;;;37.70;25.55;;;;;;;14.84;75.47;100621.28;4888473;28;127432;-66
2021/08/29 07:34:02;;;;;;;36.33;23.40;;;;;;;14.84;75.39;100632.13;4882128;28;98290;-61
2021/08/29 07:36:29;;;;;;;37.22;23.63;;;;;;;14.84;75.60;100619.38;4887580;28;128909;-62
2021/08/29 07:38:55;;;;;;;35.17;23.33;;;;;;;14.85;75.49;100618.25;4881467;28;99399;-65
2021/08/29 07:41:21;;;;;;;38.38;25.35;;;;;;;14.87;76.14;100616.06;4880326;28;127673;-62
2021/08/29 07:43:47;;;;;;;30.13;20.48;;;;;;;14.89;76.16;100619.28;4880576;28;118052;-62
2021/08/29 07:46:13;;;;;;;33.97;21.55;;;;;;;14.90;75.73;100620.94;4883951;28;127151;-65
2021/08/29 07:48:39;;;;;;;30.30;20.25;;;;;;;14.91;75.90;100622.53;4893150;28;128635;-61
2021/08/29 07:51:05;;;;;;;42.42;22.67;;;;;;;14.93;76.04;100620.34;4880677;28;127277;-65
2021/08/29 07:53:31;;;;;;;28.80;20.33;;;;;;;14.94;76.01;100624.66;4883269;28;117735;-62
2021/08/29 07:55:57;;;;;;;38.70;21.95;;;;;;;14.94;75.97;100619.25;4887103;28;128744;-65
2021/08/29 07:58:23;;;;;;;34.67;20.75;;;;;;;14.95;75.67;100625.47;4880567;28;127978;-62
2021/08/29 08:00:49;;;;;;;36.08;21.90;;;;;;;14.92;76.11;100623.34;4882983;28;97978;-66
2021/08/29 08:03:15;;;;;;;38.35;23.98;;;;;;;14.93;76.01;100617.63;4880499;28;112296;-62
2021/08/29 08:05:41;;;;;;;39.00;23.40;;;;;;;15.01;75.92;100621.56;4882477;28;99089;-62
2021/08/29 08:08:07;;;;;;;48.15;39.50;;;;;;;15.06;75.59;100618.81;4881604;28;127384;-65
2021/08/29 08:10:33;;;;;;;42.22;30.75;;;;;;;15.13;75.43;100623.84;4901996;28;127206;-61
2021/08/29 08:12:59;;;;;;;32.10;23.27;;;;;;;15.17;75.38;100619.47;4890741;28;116373;-62
2021/08/29 08:15:25;;;;;;;29.15;21.30;;;;;;;15.20;75.20;100622.38;4879824;28;129112;-65
2021/08/29 08:17:51;;;;;;;29.75;20.90;;;;;;;15.23;75.72;100631.84;4880641;28;127378;-62
2021/08/29 08:20:17;;;;;;;26.77;20.02;;;;;;;15.23;75.46;100624.50;4880189;28;127383;-62
2021/08/29 08:22:45;;;;;;;35.67;24.13;;;;;;;15.25;75.54;100631.56;4877913;28;118528;-65
2021/08/29 08:25:11;;;;;;;31.10;21.27;;;;;;;15.23;75.68;100629.13;4895168;28;98232;-65
2021/08/29 08:27:38;;;;;;;34.88;24.30;;;;;;;15.23;75.36;100627.22;4894821;28;127425;-61
2021/08/29 08:30:04;;;;;;;36.30;24.33;;;;;;;15.25;75.44;100624.25;4895164;28;127255;-62
2021/08/29 08:32:31;;;;;;;31.92;22.83;;;;;;;15.26;75.28;100625.84;4880050;28;107613;-65
2021/08/29 08:34:57;;;;;;;43.55;31.45;;;;;;;15.33;75.33;100630.91;4881390;28;98086;-61
2021/08/29 08:37:23;;;;;;;33.20;23.65;;;;;;;15.37;75.14;100627.31;4880641;28;127970;-62
2021/08/29 08:39:49;;;;;;;30.98;22.23;;;;;;;15.46;75.46;100624.72;4880618;28;113019;-62
2021/08/29 08:42:15;;;;;;;37.28;23.63;;;;;;;15.51;75.38;100623.81;4880565;28;104810;-62
2021/08/29 08:44:44;;;;;;;30.92;22.70;;;;;;;15.55;75.11;100622.94;4879015;28;128281;-62
2021/08/29 08:47:11;;;;;;;31.10;21.27;;;;;;;15.61;75.33;100624.47;4878332;28;98101;-65
2021/08/29 08:49:37;;;;;;;31.00;21.13;;;;;;;15.74;74.65;100620.22;4894970;28;114489;-65
2021/08/29 08:52:16;;;;;;;31.20;21.83;;;;;;;15.79;74.42;100622.03;4877527;28;118882;-65
2021/08/29 08:54:42;;;;;;;32.50;22.02;;;;;;;15.81;74.53;100617.91;4879184;28;97914;-65
2021/08/29 08:57:08;;;;;;;29.90;21.27;;;;;;;15.91;74.32;100619.63;4893587;28;127376;-62
2021/08/29 08:59:35;;;;;;;30.88;22.27;;;;;;;16.03;73.92;100619.16;4880456;28;125669;-62
2021/08/29 09:02:01;;;;;;;27.77;21.58;;;;;;;16.23;73.78;100618.81;4880241;28;118673;-65
2021/08/29 09:04:27;;;;;;;27.55;20.45;;;;;;;16.48;72.74;100625.66;4878398;28;97830;-62
2021/08/29 09:06:54;;;;;;;26.05;18.95;;;;;;;16.94;71.75;100619.28;4880400;28;98914;-66
2021/08/29 09:09:20;;;;;;;25.00;18.95;;;;;;;17.52;69.83;100612.19;4877389;28;126741;-66
2021/08/29 09:11:46;;;;;;;22.80;18.38;;;;;;;17.93;69.30;100614.75;4882384;28;97963;-62
2021/08/29 09:14:12;;;;;;;21.88;17.95;;;;;;;18.11;69.08;100608.22;4892886;28;127275;-62
2021/08/29 09:16:38;;;;;;;20.98;16.95;;;;;;;18.06;69.02;100602.94;4880151;28;127447;-62
2021/08/29 09:19:05;;;;;;;21.70;16.63;;;;;;;17.96;69.37;100600.50;4896117;28;98286;-65
2021/08/29 09:21:36;;;;;;;22.60;17.50;;;;;;;17.79;69.76;100598.44;4886370;28;98219;-65
2021/08/29 09:24:08;;;;;;;21.27;16.55;;;;;;;17.73;69.78;100605.13;4879776;28;109436;-62
2021/08/29 09:26:40;;;;;;;20.00;15.77;;;;;;;17.97;69.38;100598.56;4893200;28;117783;-66
2021/08/29 09:29:07;;;;;;;;;;;;;;;19.33;66.40;100594.84;4882344;28;99224;-66
2021/08/29 09:31:45;;;;;;;17.95;14.65;;;;;;;19.22;66.71;100599.03;4883141;28;99469;-62
2021/08/29 09:34:11;;;;;;;19.98;16.00;;;;;;;19.17;66.48;100596.44;4880576;28;97735;-66
2021/08/29 09:36:38;;;;;;;18.10;14.50;;;;;;;19.13;66.50;100599.81;4880429;28;116281;-62
2021/08/29 09:39:18;;;;;;;16.63;14.27;;;;;;;19.13;67.00;100591.63;4887637;28;98343;-66
2021/08/29 09:41:44;;;;;;;19.67;14.63;;;;;;;19.06;66.45;100599.53;4879433;28;97946;-62
2021/08/29 09:44:18;;;;;;;17.23;14.43;;;;;;;18.89;66.87;100594.81;4879905;28;113255;-65
2021/08/29 09:47:02;;;;;;;17.15;14.68;;;;;;;19.15;66.10;100596.78;4884710;28;98513;-62
2021/08/29 09:49:30;;;;;;;16.10;13.13;;;;;;;20.01;62.86;100592.31;4887422;28;98236;-65
2021/08/29 09:51:58;;;;;;;14.48;12.50;;;;;;;21.05;60.46;100589.00;4893315;28;98147;-62
2021/08/29 09:54:43;;;;;;;12.43;11.13;;;;;;;24.16;54.67;100585.72;4892738;28;98467;-62
2021/08/29 09:57:11;;;;;;;12.35;11.15;;;;;;;22.60;55.86;100588.47;4879176;28;98041;-66
2021/08/29 09:59:48;;;;;;;12.05;10.77;;;;;;;22.62;57.45;100585.34;4883429;28;118115;-66
2021/08/29 10:02:27;;;;;;;10.95;9.80;;;;;;;24.85;52.59;100579.84;4879159;28;107083;-66
2021/08/29 10:05:19;;;;;;;11.27;9.93;;;;;;;23.15;56.52;100581.47;4880922;28;97791;-66
2021/08/29 10:08:09;;;;;;;10.88;9.70;;;;;;;22.45;57.85;100569.94;4886435;28;98132;-66
2021/08/29 10:10:39;;;;;;;11.02;9.88;;;;;;;22.10;57.56;100570.34;4879458;28;97891;-62
2021/08/29 10:13:06;;;;;;;10.18;9.07;;;;;;;22.72;55.16;100565.66;4880586;28;97979;-62
2021/08/29 10:15:34;;;;;;;9.90;8.82;;;;;;;22.05;56.85;100565.91;4883138;28;99391;-62
2021/08/29 10:18:00;;;;;;;8.55;7.65;;;;;;;21.69;57.04;100557.59;4879351;28;98958;-62
2021/08/29 10:20:27;;;;;;;7.47;6.70;;;;;;;21.39;57.78;100560.50;4879841;28;105095;-66
2021/08/29 10:22:53;;;;;;;8.15;7.35;;;;;;;21.28;58.03;100559.28;4878873;28;106195;-62
2021/08/29 10:25:20;;;;;;;6.88;6.18;;;;;;;24.47;50.54;100543.59;4879129;28;98492;-62
2021/08/29 10:27:51;;;;;;;6.90;5.88;;;;;;;27.02;45.54;100546.06;4883575;28;110209;-66
2021/08/29 10:30:18;;;;;;;7.15;6.40;;;;;;;26.52;46.50;100548.19;4880261;28;97965;-63
2021/08/29 10:32:45;;;;;;;6.68;5.97;;;;;;;28.67;42.75;100554.69;4872960;28;108814;-63
2021/08/29 10:35:13;;;;;;;5.30;4.80;;;;;;;26.53;46.99;100552.56;4879997;28;98517;-66
2021/08/29 10:37:42;;;;;;;4.50;4.10;;;;;;;25.67;48.53;100545.63;4878341;28;98016;-63
2021/08/29 10:40:08;;;;;;;4.57;3.92;;;;;;;25.08;49.27;100539.38;4879379;28;97967;-63
2021/08/29 10:42:36;;;;;;;4.50;4.10;;;;;;;24.59;49.52;100536.38;4878324;28;103066;-63
2021/08/29 10:45:03;;;;;;;5.10;4.60;;;;;;;25.80;46.28;100524.19;4891758;28;103798;-66
2021/08/29 10:47:29;;;;;;;5.00;4.20;;;;;;;26.94;44.08;100517.53;4878714;28;98170;-63
2021/08/29 10:49:55;;;;;;;4.72;4.22;;;;;;;26.06;46.68;100523.44;4878945;28;98533;-63
2021/08/29 10:52:22;;;;;;;4.30;3.90;;;;;;;25.15;47.78;100523.00;4893134;28;97957;-63
2021/08/29 10:54:52;;;;;;;3.78;3.45;;;;;;;24.53;49.22;100504.78;4890400;28;109099;-63
2021/08/29 10:57:32;;;;;;;4.40;4.00;;;;;;;26.58;45.46;100494.19;4878315;28;98346;-66
2021/08/29 11:00:24;;;;;;;5.28;3.20;;;;;;;28.38;42.83;100503.88;4880065;28;98034;-63
2021/08/29 11:02:52;;;;;;;3.50;3.17;;;;;;;28.10;42.82;100496.94;4892349;28;104491;-63
2021/08/29 11:05:40;;;;;;;3.22;2.92;;;;;;;28.20;43.54;100494.63;4878671;28;99385;-66
2021/08/29 11:08:28;;;;;;;3.03;2.72;;;;;;;26.96;45.61;100482.03;4884775;28;98414;-63
2021/08/29 11:10:55;;;;;;;3.90;3.10;;;;;;;26.77;44.10;100483.00;4889243;28;98461;-66
2021/08/29 11:13:36;;;;;;;4.82;3.35;;;;;;;26.02;45.84;100484.72;4882313;28;98248;-66
2021/08/29 11:16:23;;;;;;;3.60;3.00;;;;;;;25.48;46.57;100484.97;4878584;28;98016;-65